Time;durP1;ratioP1;P1;durP2;ratioP2;P2;SDS_P1;SDS_P2;PMS_P1;PMS_P2;Temp;Humidity;BMP_temperature;BMP_pressure;BME280_temperature;BME280_humidity;BME280_pressure;Samples;Min_cycle;Max_cycle;Signal;HPM_P1;HPM_P2
2023/08/06 00:00:37;;;;;;;4.93;4.13;;;;;;;32.68;29.89;101169.56;5113639;27;20043;-80
2023/08/06 00:03:07;;;;;;;5.07;4.30;;;;;;;32.60;30.73;101170.00;5119179;27;20115;-80
2023/08/06 00:05:36;;;;;;;5.35;3.90;;;;;;;32.54;30.47;101179.22;5123760;27;20036;-78
2023/08/06 00:08:05;;;;;;;6.30;4.60;;;;;;;32.48;31.15;101168.84;5114824;27;20057;-79
2023/08/06 00:10:33;;;;;;;9.07;4.50;;;;;;;32.42;30.45;101168.31;5119495;27;20450;-79
2023/08/06 00:13:02;;;;;;;5.43;4.65;;;;;;;32.33;30.41;101169.69;5118688;27;20059;-78
2023/08/06 00:15:31;;;;;;;5.10;4.28;;;;;;;32.25;30.26;101172.78;5121912;27;20065;-79
2023/08/06 00:17:59;;;;;;;5.43;4.38;;;;;;;32.21;30.92;101176.59;5120702;27;20128;-81
2023/08/06 00:20:35;;;;;;;4.70;4.18;;;;;;;32.16;30.34;101170.59;5120070;27;20077;-78
2023/08/06 00:23:03;;;;;;;5.05;3.88;;;;;;;32.10;31.38;101169.13;5116545;27;20617;-80
2023/08/06 00:25:32;;;;;;;4.97;4.40;;;;;;;32.11;30.59;101180.69;5123959;27;20040;-78
2023/08/06 00:28:01;;;;;;;7.75;4.47;;;;;;;32.07;30.69;101177.34;5115392;27;20052;-80
2023/08/06 00:30:29;;;;;;;7.05;4.25;;;;;;;32.04;30.22;101176.63;5126355;28;20513;-82
2023/08/06 00:32:58;;;;;;;6.55;4.32;;;;;;;32.03;31.50;101177.59;5113509;27;20553;-81
2023/08/06 00:35:26;;;;;;;6.45;4.38;;;;;;;32.00;31.08;101177.75;5122533;27;20047;-81
2023/08/06 00:37:56;;;;;;;5.95;4.50;;;;;;;32.02;30.50;101176.72;5125883;27;20043;-81
2023/08/06 00:40:25;;;;;;;5.65;4.47;;;;;;;32.12;30.59;101177.09;5131386;27;20065;-79
2023/08/06 00:42:53;;;;;;;5.90;4.45;;;;;;;32.14;30.58;101188.59;5117263;27;20534;-82
2023/08/06 00:45:26;;;;;;;4.15;3.75;;;;;;;32.18;30.50;101181.25;5124087;27;20031;-86
2023/08/06 00:47:55;;;;;;;4.47;4.00;;;;;;;32.19;29.76;101181.16;5128882;27;20047;-82
2023/08/06 00:50:24;;;;;;;5.90;4.50;;;;;;;32.13;30.24;101179.66;5121425;27;20055;-83
2023/08/06 00:52:53;;;;;;;5.05;4.10;;;;;;;32.05;30.04;101178.38;5139521;27;20138;-83
2023/08/06 00:55:28;;;;;;;4.88;4.38;;;;;;;32.07;31.23;101195.19;5128404;27;20086;-83
2023/08/06 00:57:57;;;;;;;4.40;4.00;;;;;;;32.06;30.53;101193.47;5118630;27;20092;-81
2023/08/06 01:00:26;;;;;;;6.45;3.72;;;;;;;31.99;31.06;101190.25;5123924;27;20048;-80
2023/08/06 01:02:55;;;;;;;4.22;2.65;;;;;;;31.98;33.76;101191.22;5123069;27;20515;-84
2023/08/06 01:05:27;;;;;;;2.05;1.85;;;;;;;31.97;34.33;101188.63;5127497;27;20581;-82
2023/08/06 01:08:05;;;;;;;;;;;;;;;32.11;34.82;101191.41;5136757;27;20039;-81
2023/08/06 01:14:04;;;;;;;2.90;2.20;;;;;;;31.99;35.04;101192.94;5136405;27;20055;-84
2023/08/06 01:16:39;;;;;;;3.35;2.28;;;;;;;31.92;34.56;101192.38;5131770;27;20400;-84
2023/08/06 01:19:18;;;;;;;2.50;2.08;;;;;;;31.88;34.99;101196.16;5128219;27;20050;-83
2023/08/06 01:21:48;;;;;;;4.45;3.10;;;;;;;31.86;31.98;101192.69;5136120;27;20446;-83
2023/08/06 01:24:20;;;;;;;4.32;3.10;;;;;;;31.89;32.23;101187.19;5128860;27;20070;-84
2023/08/06 01:26:56;;;;;;;3.97;3.22;;;;;;;31.90;31.46;101185.38;5123218;27;20043;-84
2023/08/06 01:29:31;;;;;;;4.47;2.92;;;;;;;31.85;31.23;101185.63;5132453;27;20467;-79
2023/08/06 01:32:00;;;;;;;4.68;3.20;;;;;;;31.68;30.92;101181.16;5127892;27;20150;-79
2023/08/06 01:34:33;;;;;;;5.63;3.33;;;;;;;31.50;31.78;101185.66;5119744;27;20050;-81
2023/08/06 01:37:04;;;;;;;3.92;2.80;;;;;;;31.38;32.15;101191.56;5128542;27;20697;-82
2023/08/06 01:39:35;;;;;;;3.72;3.10;;;;;;;31.26;32.15;101184.19;5130533;27;20050;-79
2023/08/06 01:42:08;;;;;;;4.03;3.30;;;;;;;31.12;32.24;101189.38;5116320;27;20051;-82
2023/08/06 01:44:36;;;;;;;3.30;2.90;;;;;;;31.00;32.18;101189.03;5120589;27;20043;-79
2023/08/06 01:47:05;;;;;;;5.38;2.80;;;;;;;30.94;32.38;101192.00;5132960;27;20096;-80
2023/08/06 01:49:34;;;;;;;3.38;2.80;;;;;;;30.84;31.60;101188.03;5120912;27;20044;-82
2023/08/06 01:52:07;;;;;;;4.00;2.60;;;;;;;30.69;32.50;101185.16;5119995;27;20040;-84
2023/08/06 01:54:36;;;;;;;6.72;2.90;;;;;;;30.57;32.75;101172.38;5113547;27;20118;-80
2023/08/06 01:57:05;;;;;;;6.90;3.03;;;;;;;30.53;33.08;101178.78;5126039;27;20055;-80
2023/08/06 01:59:33;;;;;;;4.30;3.10;;;;;;;30.53;33.34;101180.59;5123552;27;20043;-76
2023/08/06 02:02:05;;;;;;;3.28;2.97;;;;;;;30.41;32.31;101176.72;5123034;27;20047;-83
2023/08/06 02:04:33;;;;;;;7.05;2.80;;;;;;;30.42;32.93;101178.44;5127148;27;20039;-83
2023/08/06 02:07:02;;;;;;;5.28;2.88;;;;;;;30.47;33.23;101184.44;5123177;27;20043;-81
2023/08/06 02:09:33;;;;;;;5.05;3.08;;;;;;;30.51;32.56;101175.31;5128555;27;20051;-82
2023/08/06 02:12:02;;;;;;;4.90;2.97;;;;;;;30.55;32.26;101178.72;5125817;27;20550;-80
2023/08/06 02:14:33;;;;;;;4.30;2.58;;;;;;;30.58;31.39;101190.16;5125282;27;20112;-83
2023/08/06 02:17:01;;;;;;;5.22;3.00;;;;;;;30.60;32.05;101177.56;5120355;27;20240;-79
2023/08/06 02:19:31;;;;;;;2.53;2.20;;;;;;;30.61;31.05;101183.78;5132184;27;20050;-81
2023/08/06 02:21:59;;;;;;;3.90;2.22;;;;;;;30.51;30.94;101188.66;5123043;27;20058;-77
2023/08/06 02:24:28;;;;;;;4.82;2.22;;;;;;;30.40;31.71;101196.34;5123514;27;20686;-77
2023/08/06 02:27:00;;;;;;;5.97;2.25;;;;;;;30.23;31.50;101189.94;5119729;27;20047;-78
2023/08/06 02:29:29;;;;;;;3.33;2.10;;;;;;;30.14;31.75;101206.34;5115792;27;20043;-76
2023/08/06 02:31:58;;;;;;;3.13;2.28;;;;;;;29.98;31.80;101199.97;5129729;27;20047;-79
2023/08/06 02:34:27;;;;;;;3.17;2.30;;;;;;;29.89;31.78;101208.41;5122889;27;20068;-80
2023/08/06 02:36:57;;;;;;;7.35;2.70;;;;;;;29.79;31.75;101207.94;5124344;27;20059;-79
2023/08/06 02:39:26;;;;;;;6.32;2.15;;;;;;;29.71;31.56;101218.97;5119980;27;20131;-80
2023/08/06 02:41:54;;;;;;;3.85;2.60;;;;;;;29.64;31.90;101228.97;5119659;27;20092;-82
2023/08/06 02:44:24;;;;;;;2.67;2.15;;;;;;;29.56;32.05;101230.25;5114537;27;20062;-82
2023/08/06 02:46:53;;;;;;;3.67;2.47;;;;;;;29.40;31.16;101224.69;5127979;27;20042;-82
2023/08/06 02:49:24;;;;;;;3.83;2.70;;;;;;;29.28;31.90;101228.72;5125869;27;20059;-82
2023/08/06 02:51:53;;;;;;;3.53;2.70;;;;;;;29.14;32.43;101233.75;5114162;27;20044;-82
2023/08/06 02:54:21;;;;;;;2.60;2.33;;;;;;;29.04;32.49;101234.06;5112891;27;20460;-79
2023/08/06 02:56:50;;;;;;;2.80;2.13;;;;;;;28.95;33.16;101238.91;5121799;27;20065;-83
2023/08/06 02:59:19;;;;;;;4.82;2.58;;;;;;;28.80;33.12;101240.38;5117220;27;20067;-79
2023/08/06 03:01:49;;;;;;;3.10;2.22;;;;;;;28.68;34.05;101239.06;5112759;27;20059;-83
2023/08/06 03:04:18;;;;;;;2.97;2.50;;;;;;;28.61;33.74;101246.44;5119560;27;20104;-83
2023/08/06 03:06:46;;;;;;;2.30;2.10;;;;;;;28.55;33.89;101238.66;5122536;27;20108;-84
2023/08/06 03:09:15;;;;;;;3.15;2.42;;;;;;;28.50;34.04;101243.28;5123368;27;20051;-85
2023/08/06 03:11:46;;;;;;;2.58;2.33;;;;;;;28.42;34.11;101240.00;5125971;27;20051;-83
2023/08/06 03:14:14;;;;;;;3.40;2.97;;;;;;;28.34;34.08;101248.28;5109616;27;20044;-85
2023/08/06 03:16:43;;;;;;;2.55;2.17;;;;;;;28.27;33.85;101246.78;5130219;27;20039;-81
2023/08/06 03:19:13;;;;;;;2.67;2.40;;;;;;;28.23;34.21;101254.94;5123068;27;20043;-81
2023/08/06 03:21:42;;;;;;;5.05;2.90;;;;;;;28.18;34.74;101258.63;5115484;27;20055;-82
2023/08/06 03:24:10;;;;;;;2.90;2.40;;;;;;;28.15;35.07;101263.16;5124790;27;20055;-83
2023/08/06 03:26:39;;;;;;;3.33;2.70;;;;;;;28.06;34.82;101255.50;5127858;27;20055;-83
2023/08/06 03:29:07;;;;;;;3.75;2.95;;;;;;;27.98;34.72;101254.00;5112351;27;20051;-81
2023/08/06 03:31:36;;;;;;;3.58;3.15;;;;;;;27.92;34.54;101256.91;5123140;27;20051;-80
2023/08/06 03:34:04;;;;;;;3.97;3.13;;;;;;;27.86;35.01;101266.88;5110860;27;20051;-81
2023/08/06 03:36:35;;;;;;;3.67;2.80;;;;;;;27.79;35.19;101274.16;5114519;27;20044;-81
2023/08/06 03:39:03;;;;;;;4.05;2.95;;;;;;;27.74;35.41;101270.75;5121433;27;20066;-82
2023/08/06 03:41:32;;;;;;;3.67;2.90;;;;;;;27.71;35.39;101274.41;5112700;27;20047;-84
2023/08/06 03:44:02;;;;;;;4.38;3.00;;;;;;;27.66;35.61;101276.34;5121482;27;20050;-81
2023/08/06 03:46:35;;;;;;;4.38;3.00;;;;;;;27.62;36.16;101280.03;5123669;27;20100;-84
2023/08/06 03:49:04;;;;;;;4.10;2.75;;;;;;;27.58;35.83;101281.06;5117693;27;20084;-84
2023/08/06 03:51:34;;;;;;;5.65;3.22;;;;;;;27.54;36.21;101282.94;5120407;27;20054;-83
2023/08/06 03:54:03;;;;;;;4.18;3.00;;;;;;;27.46;36.10;101282.31;5112263;27;20043;-82
2023/08/06 03:56:31;;;;;;;3.47;3.00;;;;;;;27.42;36.19;101285.13;5116739;27;20751;-82
2023/08/06 03:59:00;;;;;;;4.47;3.15;;;;;;;27.37;36.36;101285.28;5116760;27;20055;-81
2023/08/06 04:01:28;;;;;;;3.25;2.80;;;;;;;27.32;36.98;101287.22;5111641;27;20040;-84
2023/08/06 04:03:57;;;;;;;3.05;2.75;;;;;;;27.27;37.22;101289.16;5122493;27;20051;-82
2023/08/06 04:06:25;;;;;;;3.55;2.80;;;;;;;27.22;36.50;101297.28;5129913;27;20043;-83
2023/08/06 04:08:56;;;;;;;4.70;3.45;;;;;;;27.17;36.33;101296.53;5113280;27;20137;-82
2023/08/06 04:11:24;;;;;;;4.20;3.17;;;;;;;27.15;38.10;101301.00;5128893;27;20050;-79
2023/08/06 04:13:54;;;;;;;3.92;2.97;;;;;;;27.11;38.14;101315.28;5125487;27;20050;-80
2023/08/06 04:16:23;;;;;;;4.32;3.10;;;;;;;27.07;36.75;101308.31;5129344;27;20553;-85
2023/08/06 04:18:52;;;;;;;3.42;3.13;;;;;;;27.03;37.69;101312.00;5112560;27;20048;-81
2023/08/06 04:21:21;;;;;;;3.53;2.72;;;;;;;27.02;38.50;101319.09;5113250;27;20040;-83
2023/08/06 04:23:49;;;;;;;3.53;3.00;;;;;;;27.00;38.16;101314.75;5119408;27;20054;-81
2023/08/06 04:26:37;;;;;;;4.68;3.10;;;;;;;26.99;37.20;101323.66;5107685;27;20120;-81
2023/08/06 04:29:12;;;;;;;4.28;3.25;;;;;;;26.99;37.01;101326.31;5099227;28;20051;-81
2023/08/06 04:31:40;;;;;;;5.03;3.17;;;;;;;26.99;37.35;101326.31;5094666;28;20558;-82
2023/08/06 04:34:09;;;;;;;4.35;3.17;;;;;;;26.99;38.09;101323.66;5095720;28;20756;-83
2023/08/06 04:36:38;;;;;;;4.55;3.25;;;;;;;26.95;38.67;101326.38;5089643;28;20631;-82
2023/08/06 04:39:07;;;;;;;5.18;3.22;;;;;;;26.93;38.01;101328.19;5095809;28;20154;-82
2023/08/06 04:41:37;;;;;;;6.03;3.38;;;;;;;26.91;37.94;101330.03;5095677;28;20035;-81
2023/08/06 04:44:06;;;;;;;4.82;3.00;;;;;;;26.91;37.76;101330.03;5102328;28;20044;-81
2023/08/06 04:46:34;;;;;;;4.88;3.17;;;;;;;26.89;38.12;101329.22;5092025;28;20040;-80
2023/08/06 04:49:03;;;;;;;3.28;2.92;;;;;;;26.88;38.02;101338.09;5105103;28;20053;-80
2023/08/06 04:51:32;;;;;;;4.38;3.33;;;;;;;26.85;38.90;101340.84;5094261;28;20452;-80
2023/08/06 04:54:00;;;;;;;3.17;2.65;;;;;;;26.80;38.51;101341.88;5100960;28;20044;-81
2023/08/06 04:56:29;;;;;;;3.42;2.85;;;;;;;26.75;38.45;101342.00;5100663;28;20046;-82
2023/08/06 04:58:59;;;;;;;3.72;2.70;;;;;;;26.70;38.89;101341.28;5102198;28;20054;-81
2023/08/06 05:01:28;;;;;;;3.60;3.08;;;;;;;26.67;38.46;101344.03;5101966;28;20044;-82
2023/08/06 05:03:57;;;;;;;5.35;3.55;;;;;;;26.65;38.56;101348.50;5108003;28;20080;-80
2023/08/06 05:06:25;;;;;;;5.72;3.60;;;;;;;26.63;39.29;101347.69;5100473;28;20052;-80
2023/08/06 05:08:54;;;;;;;3.88;2.97;;;;;;;26.59;39.15;101344.22;5096650;28;20044;-81
2023/08/06 05:11:23;;;;;;;3.70;3.30;;;;;;;26.53;39.06;101345.25;5106449;28;20517;-82
2023/08/06 05:13:52;;;;;;;4.35;3.33;;;;;;;26.54;39.60;101356.72;5091802;28;20074;-83
2023/08/06 05:16:22;;;;;;;3.15;2.72;;;;;;;26.49;40.00;101356.84;5104994;28;20040;-78
2023/08/06 05:18:51;;;;;;;3.90;3.00;;;;;;;26.45;39.59;101357.84;5108453;28;20047;-80
2023/08/06 05:21:19;;;;;;;4.15;3.22;;;;;;;26.42;39.55;101363.25;5106833;28;20054;-77
2023/08/06 05:23:48;;;;;;;3.83;3.05;;;;;;;26.39;40.23;101359.78;5103377;28;20048;-83
2023/08/06 05:26:18;;;;;;;3.70;3.30;;;;;;;26.35;40.41;101361.66;5128069;27;20051;-81
2023/08/06 05:28:47;;;;;;;5.00;3.30;;;;;;;26.30;41.01;101360.94;5134317;27;20055;-80
2023/08/06 05:31:18;;;;;;;4.30;3.10;;;;;;;26.24;40.82;101369.91;5121183;27;20056;-83
2023/08/06 05:33:48;;;;;;;3.65;3.10;;;;;;;26.18;40.35;101369.19;5125721;27;20481;-86
2023/08/06 05:36:17;;;;;;;3.80;2.60;;;;;;;26.10;40.01;101372.03;5129839;27;20559;-84
2023/08/06 05:38:46;;;;;;;4.90;2.78;;;;;;;26.04;40.84;101370.41;5129346;27;20043;-81
2023/08/06 05:41:14;;;;;;;3.88;3.00;;;;;;;26.01;40.86;101369.63;5122793;27;20046;-80
2023/08/06 05:43:43;;;;;;;3.13;2.80;;;;;;;25.97;40.53;101368.81;5125645;27;20056;-81
2023/08/06 05:46:11;;;;;;;3.97;3.13;;;;;;;25.92;40.90;101374.22;5129234;27;20044;-86
2023/08/06 05:48:40;;;;;;;3.97;3.20;;;;;;;25.89;40.66;101368.16;5127580;27;20051;-80
2023/08/06 05:51:12;;;;;;;3.20;2.80;;;;;;;25.80;41.42;101373.66;5126651;27;20047;-83
2023/08/06 05:53:41;;;;;;;4.45;3.65;;;;;;;25.74;41.54;101371.13;5125879;27;20451;-84
2023/08/06 05:56:09;;;;;;;3.35;3.00;;;;;;;25.67;41.43;101376.56;5137314;27;20694;-86
2023/08/06 05:58:38;;;;;;;4.05;3.17;;;;;;;25.61;41.89;101371.44;5124909;27;20039;-87
2023/08/06 06:01:06;;;;;;;4.40;3.25;;;;;;;25.57;42.10;101375.06;5126785;27;20043;-83
2023/08/06 06:03:35;;;;;;;5.05;3.03;;;;;;;25.55;41.97;101379.50;5141871;27;20051;-83
2023/08/06 06:06:04;;;;;;;5.70;2.67;;;;;;;25.54;42.62;101377.78;5131885;27;21287;-86
2023/08/06 06:08:34;;;;;;;3.45;2.85;;;;;;;25.52;42.96;101374.28;5127008;27;20042;-85
2023/08/06 06:11:02;;;;;;;3.83;3.28;;;;;;;25.46;42.56;101382.38;5130973;27;20058;-85
2023/08/06 06:13:31;;;;;;;4.25;3.00;;;;;;;25.42;43.42;101378.91;5124540;27;20101;-84
2023/08/06 06:15:59;;;;;;;3.90;3.47;;;;;;;25.36;44.05;101375.50;5120403;27;20059;-84
2023/08/06 06:18:28;;;;;;;4.38;3.10;;;;;;;25.24;43.38;101372.25;5130878;27;20043;-83
2023/08/06 06:20:56;;;;;;;4.47;3.30;;;;;;;25.17;43.20;101369.72;5124571;27;20047;-83
2023/08/06 06:23:25;;;;;;;4.93;3.58;;;;;;;25.13;43.37;101370.69;5124256;27;20103;-84
2023/08/06 06:26:03;;;;;;;4.43;3.10;;;;;;;25.08;43.38;101373.44;5121105;27;20050;-84
2023/08/06 06:28:32;;;;;;;4.18;3.25;;;;;;;25.04;43.42;101371.78;5132861;27;20170;-82
2023/08/06 06:31:03;;;;;;;4.90;3.08;;;;;;;25.03;43.46;101370.00;5125652;27;20089;-85
2023/08/06 06:33:41;;;;;;;;;;;;;;;;;;;;;
2023/08/06 06:36:10;;;;;;;3.67;3.00;;;;;;;25.03;44.94;101370.00;5121850;27;20497;-85
2023/08/06 06:38:39;;;;;;;3.67;2.90;;;;;;;25.01;45.17;101371.81;5131755;27;20536;-86
2023/08/06 06:41:09;;;;;;;5.43;3.42;;;;;;;25.00;44.15;101364.78;5126148;27;20563;-86
2023/08/06 06:43:43;;;;;;;5.18;3.28;;;;;;;24.93;44.31;101366.69;5129210;27;20508;-87
2023/08/06 06:46:12;;;;;;;4.15;3.28;;;;;;;24.86;44.80;101362.44;5127452;27;20058;-85
2023/08/06 06:48:40;;;;;;;4.55;3.15;;;;;;;24.81;44.61;101369.59;5128468;27;20047;-85
2023/08/06 06:51:09;;;;;;;3.10;2.72;;;;;;;24.78;45.41;101367.84;5117779;27;20990;-85
2023/08/06 06:53:40;;;;;;;4.43;3.25;;;;;;;24.76;45.50;101366.16;5123320;27;20103;-86
2023/08/06 06:56:10;;;;;;;6.93;3.23;;;;;;;24.70;44.83;101359.22;5126693;27;20107;-84
2023/08/06 06:58:40;;;;;;;4.47;3.20;;;;;;;24.66;45.20;101353.09;5128292;27;20078;-85
2023/08/06 07:01:09;;;;;;;6.97;3.25;;;;;;;24.62;45.66;101364.66;5122658;27;20047;-88
2023/08/06 07:03:38;;;;;;;3.50;2.65;;;;;;;24.59;45.21;101369.13;5127419;27;20043;-85
2023/08/06 07:06:09;;;;;;;5.65;3.17;;;;;;;24.58;45.42;101359.44;5125662;27;20039;-84
2023/08/06 07:08:38;;;;;;;5.22;3.25;;;;;;;24.53;46.94;101356.00;5123986;27;20485;-85
2023/08/06 07:11:09;;;;;;;4.78;3.22;;;;;;;24.45;46.01;101362.28;5125672;27;20310;-83
2023/08/06 07:13:37;;;;;;;3.70;2.80;;;;;;;24.36;46.67;101357.16;5125593;27;20473;-83
2023/08/06 07:16:08;;;;;;;5.07;3.47;;;;;;;24.30;47.83;101356.41;5127622;27;20502;-84
2023/08/06 07:18:37;;;;;;;3.67;2.97;;;;;;;24.11;47.39;101358.50;5120659;27;20036;-84
2023/08/06 07:21:05;;;;;;;4.28;3.08;;;;;;;23.93;48.93;101360.53;5128283;27;20529;-84
2023/08/06 07:23:34;;;;;;;4.45;3.00;;;;;;;23.83;49.57;101362.47;5124685;27;20043;-85
2023/08/06 07:26:02;;;;;;;5.13;3.45;;;;;;;23.79;49.71;101359.91;5121273;27;20143;-83
2023/08/06 07:28:33;;;;;;;4.90;3.30;;;;;;;23.76;50.77;101365.25;5124178;27;20555;-83
2023/08/06 07:31:01;;;;;;;7.63;3.40;;;;;;;23.73;50.29;101359.94;5125913;27;20306;-85
2023/08/06 07:33:30;;;;;;;6.80;3.05;;;;;;;23.71;50.52;101361.75;5125415;27;20050;-84
2023/08/06 07:35:59;;;;;;;5.57;3.50;;;;;;;23.70;49.99;101365.28;5118883;27;20052;-84
2023/08/06 07:38:28;;;;;;;5.85;3.65;;;;;;;23.62;49.54;101371.56;5126481;27;20035;-88
2023/08/06 07:40:59;;;;;;;3.50;3.00;;;;;;;23.54;50.74;101373.44;5124662;27;20144;-87
2023/08/06 07:43:27;;;;;;;7.60;3.58;;;;;;;23.49;50.52;101377.91;5127888;27;20062;-86
2023/08/06 07:46:01;;;;;;;4.53;3.35;;;;;;;23.48;50.54;101381.47;5127562;27;20047;-84
2023/08/06 07:48:29;;;;;;;4.40;3.63;;;;;;;23.44;49.93;101371.84;5127835;27;20039;-87
2023/08/06 07:50:59;;;;;;;5.15;3.50;;;;;;;23.35;49.76;101372.81;5134450;27;20051;-88
2023/08/06 07:53:29;;;;;;;5.43;2.83;;;;;;;23.30;50.50;101371.16;5130850;27;20044;-86
2023/08/06 07:55:58;;;;;;;4.00;3.30;;;;;;;23.24;51.01;101380.03;5129536;27;20046;-85
2023/08/06 07:58:26;;;;;;;3.88;3.15;;;;;;;23.17;52.21;101383.63;5133873;27;20049;-84
2023/08/06 08:00:57;;;;;;;6.35;3.28;;;;;;;23.05;52.50;101381.16;5132275;27;20035;-85
2023/08/06 08:03:25;;;;;;;3.78;2.92;;;;;;;22.94;54.74;101383.88;5144441;27;20080;-82
2023/08/06 08:05:58;;;;;;;4.18;2.90;;;;;;;22.87;55.54;101382.22;5140104;27;20311;-83
2023/08/06 08:08:27;;;;;;;3.95;2.95;;;;;;;22.84;54.54;101376.94;5122529;27;20355;-83
2023/08/06 08:10:58;;;;;;;3.25;2.75;;;;;;;22.79;54.47;101379.63;5122239;27;20039;-83
2023/08/06 08:13:27;;;;;;;4.10;3.03;;;;;;;22.76;55.10;101380.56;5118697;27;20043;-84
2023/08/06 08:16:01;;;;;;;5.22;2.97;;;;;;;22.67;54.75;101364.81;5120961;27;20050;-85
2023/08/06 08:18:31;;;;;;;4.95;3.00;;;;;;;22.77;56.51;101382.31;5123671;27;20078;-84
2023/08/06 08:21:04;;;;;;;5.40;2.90;;;;;;;22.77;56.88;101384.97;5125814;27;20050;-83
2023/08/06 08:23:33;;;;;;;3.20;2.53;;;;;;;22.78;56.44;101388.47;5121832;27;20135;-84
2023/08/06 08:26:02;;;;;;;4.28;2.95;;;;;;;22.78;56.52;101372.63;5132946;27;20078;-84
2023/08/06 08:28:30;;;;;;;4.68;2.75;;;;;;;22.78;56.00;101381.41;5129492;27;20070;-84
2023/08/06 08:31:00;;;;;;;3.95;2.65;;;;;;;22.77;56.85;101371.75;5122896;27;20043;-85
2023/08/06 08:33:32;;;;;;;4.60;2.92;;;;;;;22.75;56.32;101368.25;5125416;27;20484;-85
2023/08/06 08:36:00;;;;;;;3.65;2.78;;;;;;;22.74;57.35;101376.19;5124560;27;20070;-83
2023/08/06 08:38:29;;;;;;;4.60;2.50;;;;;;;22.71;57.79;101386.78;5116764;27;20047;-84
2023/08/06 08:40:57;;;;;;;2.90;2.67;;;;;;;22.69;57.33;101378.00;5122435;27;20066;-85
2023/08/06 08:43:29;;;;;;;4.32;2.78;;;;;;;22.68;57.51;101397.38;5122421;27;20524;-84
2023/08/06 08:45:59;;;;;;;4.17;2.97;;;;;;;22.66;56.64;101383.34;5124618;27;20051;-84
2023/08/06 08:48:29;;;;;;;3.63;2.85;;;;;;;22.62;56.21;101382.47;5119121;27;20107;-83
2023/08/06 08:50:59;;;;;;;5.15;3.22;;;;;;;22.58;57.19;101378.97;5123239;27;20043;-85
2023/08/06 08:53:31;;;;;;;4.18;2.95;;;;;;;22.54;57.31;101381.66;5116862;27;20051;-83
2023/08/06 08:56:00;;;;;;;5.13;2.85;;;;;;;22.53;57.40;101383.44;5126814;27;20062;-84
2023/08/06 08:58:29;;;;;;;3.47;2.60;;;;;;;22.52;57.29;101378.19;5123983;27;20051;-85
2023/08/06 09:00:58;;;;;;;3.42;2.80;;;;;;;22.52;57.55;101378.19;5135243;27;20047;-84
2023/08/06 09:03:28;;;;;;;4.10;2.67;;;;;;;22.45;58.24;101368.56;5122753;27;20081;-82
2023/08/06 09:05:59;;;;;;;4.80;2.70;;;;;;;22.46;57.83;101380.88;5129061;27;20492;-83
2023/08/06 09:08:34;;;;;;;4.30;3.13;;;;;;;22.43;58.48;101383.56;5133783;27;20462;-83
2023/08/06 09:11:04;;;;;;;4.68;3.03;;;;;;;22.38;59.18;101386.25;5128303;27;20073;-85
2023/08/06 09:13:38;;;;;;;4.05;2.85;;;;;;;22.31;59.28;101387.16;5128266;27;20031;-83
2023/08/06 09:16:08;;;;;;;4.53;2.70;;;;;;;22.30;59.51;101385.44;5124128;27;20100;-83
2023/08/06 09:18:41;;;;;;;5.40;3.05;;;;;;;22.29;59.98;101384.56;5129492;27;20047;-84
2023/08/06 09:21:18;;;;;;;4.53;2.95;;;;;;;22.23;60.53;101381.97;5124196;27;20055;-82
2023/08/06 09:23:47;;;;;;;4.38;2.60;;;;;;;22.14;60.80;101374.97;5130082;27;20051;-82
2023/08/06 09:26:15;;;;;;;5.88;2.72;;;;;;;22.12;61.15;101383.78;5126411;27;20497;-83
2023/08/06 09:28:44;;;;;;;3.78;2.65;;;;;;;22.11;60.89;101379.41;5127639;27;20070;-84
2023/08/06 09:31:12;;;;;;;3.58;2.95;;;;;;;22.13;61.17;101388.19;5126213;27;20058;-83
2023/08/06 09:33:44;;;;;;;4.40;2.60;;;;;;;22.13;60.81;101388.19;5120096;27;20050;-83
2023/08/06 09:36:13;;;;;;;3.57;2.73;;;;;;;22.13;61.02;101388.19;5127760;27;20048;-83
2023/08/06 09:38:42;;;;;;;3.58;2.88;;;;;;;22.11;61.63;101392.59;5124724;27;20126;-83
2023/08/06 09:41:11;;;;;;;5.20;2.85;;;;;;;22.07;62.36;101390.88;5126158;27;20043;-82
2023/08/06 09:43:45;;;;;;;4.25;2.70;;;;;;;22.00;62.49;101394.44;5128824;27;20488;-82
2023/08/06 09:46:16;;;;;;;3.58;2.60;;;;;;;21.98;62.37;101397.06;5126236;27;20073;-83
2023/08/06 09:48:51;;;;;;;3.38;2.78;;;;;;;21.98;62.38;101398.84;5123335;27;20043;-83
2023/08/06 09:51:20;;;;;;;2.95;2.50;;;;;;;21.99;62.93;101400.56;5122531;27;20051;-82
2023/08/06 09:53:50;;;;;;;3.72;2.72;;;;;;;22.00;63.11;101397.06;5124082;27;20050;-82
2023/08/06 09:56:20;;;;;;;4.43;2.80;;;;;;;21.99;63.22;101401.47;5123146;27;20632;-82
2023/08/06 09:58:50;;;;;;;4.85;2.78;;;;;;;21.96;62.84;101391.81;5121886;27;20044;-81
2023/08/06 10:01:23;;;;;;;3.88;3.13;;;;;;;21.95;62.73;101405.88;5123814;27;20901;-84
2023/08/06 10:03:55;;;;;;;3.97;2.53;;;;;;;21.91;62.90;101396.25;5122858;27;20043;-82
2023/08/06 10:06:25;;;;;;;4.00;3.10;;;;;;;21.85;62.77;101388.41;5126298;27;20062;-83
2023/08/06 10:08:53;;;;;;;3.20;2.65;;;;;;;21.85;62.83;101401.56;5124595;27;20039;-84
2023/08/06 10:11:28;;;;;;;6.00;3.13;;;;;;;21.86;62.92;101410.34;5126362;27;20047;-82
2023/08/06 10:14:04;;;;;;;3.97;2.72;;;;;;;21.86;63.43;101415.59;5126134;27;20054;-82
2023/08/06 10:16:34;;;;;;;3.05;2.53;;;;;;;21.86;63.53;101415.59;5126426;27;20069;-82
2023/08/06 10:19:11;;;;;;;7.28;2.65;;;;;;;21.83;64.36;101416.50;5123454;27;20047;-82
2023/08/06 10:21:40;;;;;;;4.07;2.80;;;;;;;21.79;63.22;101409.50;5125163;27;20051;-82
2023/08/06 10:24:10;;;;;;;4.25;2.90;;;;;;;21.79;63.91;101411.28;5123427;27;20039;-83
2023/08/06 10:26:39;;;;;;;4.95;3.28;;;;;;;21.78;64.01;101413.00;5127662;27;20138;-82
2023/08/06 10:29:37;;;;;;;4.30;2.90;;;;;;;21.79;63.47;101412.13;5115891;27;20047;-82
2023/08/06 10:32:07;;;;;;;5.25;2.90;;;;;;;21.80;62.46;101411.25;5122518;27;20070;-81
2023/08/06 10:35:00;;;;;;;4.75;3.03;;;;;;;21.79;62.56;101408.63;5122275;27;20831;-81
2023/08/06 10:37:37;;;;;;;4.38;2.90;;;;;;;21.74;62.59;101406.03;5120193;27;20073;-81
2023/08/06 10:40:09;;;;;;;4.65;3.20;;;;;;;21.68;63.13;101408.69;5118332;27;20474;-80
2023/08/06 10:42:37;;;;;;;4.50;2.90;;;;;;;21.65;63.29;101406.09;5120058;27;20043;-82
2023/08/06 10:45:16;;;;;;;4.57;2.58;;;;;;;21.64;63.39;101409.59;5121149;27;20065;-82
2023/08/06 10:47:45;;;;;;;3.45;2.72;;;;;;;21.61;63.09;101410.50;5127245;27;20126;-82
2023/08/06 10:50:17;;;;;;;4.22;2.97;;;;;;;21.60;63.55;101405.22;5125533;27;20049;-83
2023/08/06 10:52:46;;;;;;;4.95;3.65;;;;;;;21.58;63.57;101410.50;5121355;27;20697;-81
2023/08/06 10:55:15;;;;;;;3.63;2.20;;;;;;;21.56;63.93;101406.16;5122884;27;20053;-82
2023/08/06 10:57:43;;;;;;;5.00;2.67;;;;;;;21.52;64.96;101402.63;5125149;27;20054;-83
2023/08/06 11:00:13;;;;;;;2.67;2.30;;;;;;;21.48;65.64;101414.94;5123895;27;20058;-83
2023/08/06 11:02:43;;;;;;;3.47;2.33;;;;;;;21.47;65.34;101418.47;5127215;27;20054;-82
2023/08/06 11:05:17;;;;;;;3.30;2.50;;;;;;;21.45;65.58;101429.88;5128008;27;20048;-83
2023/08/06 11:07:48;;;;;;;2.92;2.42;;;;;;;21.40;65.54;101426.38;5123926;27;20073;-82
2023/08/06 11:10:16;;;;;;;4.18;2.28;;;;;;;21.38;65.65;101434.28;5121209;27;20051;-81
2023/08/06 11:12:45;;;;;;;3.95;2.20;;;;;;;21.37;65.20;101435.13;5125534;27;20062;-82
2023/08/06 11:15:16;;;;;;;3.08;2.08;;;;;;;21.36;65.61;101435.16;5123886;27;20043;-81
2023/08/06 11:17:45;;;;;;;7.75;3.53;;;;;;;21.33;65.43;101430.78;5120260;27;20051;-83
2023/08/06 11:20:15;;;;;;;5.35;2.85;;;;;;;21.32;64.99;101429.03;5116486;27;20089;-83
2023/08/06 11:22:44;;;;;;;5.97;2.58;;;;;;;21.27;65.76;101425.53;5123377;27;20054;-82
2023/08/06 11:25:12;;;;;;;5.45;2.70;;;;;;;21.15;67.37;101436.13;5122335;27;20039;-84
2023/08/06 11:27:41;;;;;;;6.20;2.65;;;;;;;21.02;68.89;101440.53;5119186;27;20500;-83
2023/08/06 11:30:13;;;;;;;6.13;2.55;;;;;;;20.95;68.47;101444.94;5118353;27;20394;-83
2023/08/06 11:32:50;;;;;;;4.07;2.00;;;;;;;20.94;68.48;101437.94;5124906;27;20054;-83
2023/08/06 11:35:23;;;;;;;4.03;2.83;;;;;;;20.93;68.51;101438.78;5119041;27;20549;-83
2023/08/06 11:37:51;;;;;;;;;;;;;;;20.91;67.77;101438.81;5119971;27;20129;-82
2023/08/06 11:40:19;;;;;;;4.40;2.70;;;;;;;20.88;67.58;101436.19;5118490;27;19991;-83
2023/08/06 11:42:49;;;;;;;4.78;2.83;;;;;;;20.87;67.45;101436.19;5120231;27;20056;-84